Select METAR Reports

 

KTOP - Topeka/Billard, Kansas USA
Distance from station: WSW 23mi, 37km
Updated: 12/16/2019 3:53am CST
Overcast
Overcast
 Wind from NNW
Wind: NNW 8 mph , 13 km/h
Temperature: 23°F , -5°C
Wind Chill: 14°F , -10°C
Dew Point: 18°F , -8°C
Humidity: 80%
Barometer: 30.15 inHg , 1021 hPa
Clouds: Overcast
Visibility: 10 miles , 16 km
Cloud details: Mostly cloudy 3200 ft
Overcast 12000 ft
2019/12/16 09:53 KTOP 160953Z AUTO 34007KT 10SM BKN032 OVC120 M05/M08 A3015 RMK AO2 SLP221 T10501078
KMCI - Kansas City Intl, Missouri USA
Distance from station: ENE 28mi, 45km
Updated: 12/16/2019 4:37am CST
Overcast
Overcast
 Wind from NNE
Wind: NNE 5 mph , 7 km/h
Temperature: 21°F , -6°C
Wind Chill: 14°F , -10°C
Dew Point: 18°F , -8°C
Humidity: 86%
Barometer: 30.14 inHg , 1020.7 hPa
Clouds: Overcast
Visibility: 10 miles , 16 km
Cloud details: Few Clouds 800 ft
Overcast 1800 ft
2019/12/16 10:37 KMCI 161037Z 02004KT 10SM FEW008 OVC018 M06/M08 A3014 RMK AO2 T10611078
 
KFOE - Topeka/Forbes, Kansas USA
Distance from station: SW 29mi, 46km
Updated: 12/16/2019 4:23am CST
Overcast
Overcast
 Wind from NNE
Wind: NNE 8 mph , 13 km/h
Temperature: 21°F , -6°C
Wind Chill: 11°F , -12°C
Dew Point: 18°F , -8°C
Humidity: 86%
Barometer: 30.11 inHg , 1019.6 hPa
Clouds: Overcast
Visibility: 10 miles , 16 km
Cloud details: Mostly cloudy 900 ft
Overcast 9500 ft
2019/12/16 10:23 KFOE 161023Z AUTO 02007KT 10SM BKN009 OVC095 M06/M08 A3011 RMK AO2 T10561078
KIXD - Olathe/Industrial, Kansas USA
Distance from station: SE 32mi, 52km
Updated: 12/16/2019 3:53am CST
Overcast
Overcast
 Wind from NNW
Wind: NNW 9 mph , 15 km/h
Temperature: 21°F , -6°C
Wind Chill: 11°F , -12°C
Dew Point: 18°F , -8°C
Humidity: 86%
Barometer: 30.13 inHg , 1020.3 hPa
Clouds: Overcast
Visibility: 10 miles , 16 km
Cloud details: Overcast 700 ft
2019/12/16 09:53 KIXD 160953Z AUTO 34008KT 10SM OVC007 M06/M08 A3013 RMK AO2 SLP216 T10611078
 
KMKC - Kansas City/Dntn, Missouri USA
Distance from station: E 35mi, 56km
Updated: 12/16/2019 3:54am CST
Overcast
Overcast
 Wind from N
Wind: N 7 mph , 11 km/h
Temperature: 23°F , -5°C
Wind Chill: 15°F , -9°C
Dew Point: 18°F , -8°C
Humidity: 80%
Barometer: 30.16 inHg , 1021.3 hPa
Clouds: Overcast
Visibility: 10 miles , 16 km
Cloud details: Overcast 1300 ft
2019/12/16 09:54 KMKC 160954Z 35006KT 10SM OVC013 M05/M08 A3016 RMK AO2 SLP221 T10501078
KMHK - Manhattan, Kansas USA
Distance from station: W 75mi, 120km
Updated: 12/16/2019 3:52am CST
Overcast
Overcast
 Wind from N
Wind: N 6 mph , 9 km/h
Temperature: 25°F , -4°C
Wind Chill: 18°F , -8°C
Dew Point: 19°F , -7°C
Humidity: 80%
Barometer: 30.13 inHg , 1020.3 hPa
Clouds: Overcast
Visibility: 10 miles , 16 km
Cloud details: Overcast 2300 ft
2019/12/16 09:52 KMHK 160952Z AUTO 01005KT 10SM OVC023 M04/M07 A3013 RMK AO2 SLP217 T10441067
 
KFRI - Ft Riley/Marshal, Kansas, USA
Distance from station: W 83mi, 133km
Updated: 12/16/2019 4:42am CST
unable to load KFRI data RC=
unable to load KFRI data RC=
 
KOMA - Omaha, Nebraska USA
Distance from station: N 148mi, 239km
Updated: 12/16/2019 3:52am CST
Overcast
Overcast
 Wind from calm
Wind: Calm
Temperature: 21°F , -6°C
Dew Point: 18°F , -8°C
Humidity: 86%
Barometer: 30.19 inHg , 1022.4 hPa
Clouds: Overcast
Visibility: 10 miles , 16 km
Cloud details: Overcast 1100 ft
2019/12/16 09:52 KOMA 160952Z 00000KT 10SM OVC011 M06/M08 A3019 RMK AO2 SLP237 T10611083
 
KICT - Wichita, Kansas USA
Distance from station: SW 176mi, 283km
Updated: 12/16/2019 4:21am CST
Light snow, Mist, Overcast
Light snow, Mist, Overcast
 Wind from N
Wind: N 12 mph , 19 km/h
Temperature: 25°F , -4°C
Wind Chill: 14°F , -10°C
Dew Point: 21°F , -6°C
Humidity: 86%
Barometer: 30.06 inHg , 1017.9 hPa
Summary: Light snow, Mist
Clouds: Overcast
Visibility: 1 mile , 2 km
Cloud details: Overcast 2000 ft
2019/12/16 10:21 KICT 161021Z 01010KT 1SM R01L/P6000FT -SN BR OVC020 M04/M06 A3006 RMK AO2 SFC VIS 1 1/2 P0001 T10441061 $
KDSM - Des Moines, Iowa USA
Distance from station: NNE 186mi, 300km
Updated: 12/16/2019 3:54am CST
Mostly cloudy
Mostly cloudy
 Wind from calm
Wind: Calm
Temperature: 18°F , -8°C
Dew Point: 14°F , -10°C
Humidity: 86%
Barometer: 30.16 inHg , 1021.3 hPa
Clouds: Mostly cloudy
Visibility: 10 miles , 16 km
Cloud details: Mostly cloudy 2100 ft
2019/12/16 09:54 KDSM 160954Z 00000KT 10SM BKN021 M08/M10 A3016 RMK AO2 SLP230 T10781100
 
KGLD - Goodland, Kansas USA
Distance from station: W 380mi, 611km
Updated: 12/16/2019 3:53am CST
Overcast
Overcast
 Wind from NW
Wind: NW 7 mph , 11 km/h
Temperature: 23°F , -5°C
Wind Chill: 15°F , -9°C
Dew Point: 19°F , -7°C
Humidity: 86%
Barometer: 30.03 inHg , 1016.9 hPa
Clouds: Overcast
Visibility: 10 miles , 16 km
Cloud details: Overcast 11000 ft
2019/12/16 09:53 KGLD 160953Z AUTO 31006KT 10SM OVC110 M05/M07 A3003 RMK AO2 SLP196 T10501067
KOKC - Oklahoma City, Oklahoma USA
Distance from station: SSW 288mi, 463km
Updated: 12/16/2019 4:11am CST
Mist, Overcast
Mist, Overcast
 Wind from N
Wind: N 15 mph , 24 km/h
Temperature: 28°F , -2°C
Wind Chill: 16°F , -9°C
Dew Point: 28°F , -2°C
Humidity: 100%
Barometer: 29.99 inHg , 1015.6 hPa
Summary: Mist
Clouds: Overcast
Visibility: 6 miles , 10 km
Cloud details: Overcast 500 ft
2019/12/16 10:11 KOKC 161011Z 01013KT 6SM BR OVC005 M02/M02 A2999 RMK AO2 T10171022
 
KSTL - St Loius, Missouri USA
Distance from station: E 288mi, 463km
Updated: 12/16/2019 3:51am CST
Light freezing, Drizzle, Mist, Overcast
Light freezing, Drizzle, Mist, Overcast
 Wind from N
Wind: N 8 mph , 13 km/h
Temperature: 27°F , -3°C
Wind Chill: 19°F , -7°C
Dew Point: 25°F , -4°C
Humidity: 93%
Barometer: 30.09 inHg , 1019 hPa
Summary: Light freezing, Drizzle, Mist
Clouds: Overcast
Visibility: 3 miles , 5 km
Cloud details: Overcast 500 ft
2019/12/16 09:51 KSTL 160951Z 36007KT 3SM -FZDZ BR OVC005 M03/M04 A3009 RMK AO2 SNE26 SLP203 P0000 T10281044 $
KDFW - Dallas/Ft Worth, Texas USA
Distance from station: SSW 452mi, 728km
Updated: 12/16/2019 3:53am CST
Overcast
Overcast
 Wind from NNW
Wind: NNW 17 mph , 28 km/h
Temperature: 41°F , 5°C
Wind Chill: 33°F , 1°C
Dew Point: 36°F , 2°C
Humidity: 81%
Barometer: 29.89 inHg , 1012.2 hPa
Clouds: Overcast
Visibility: 10 miles , 16 km
Cloud details: Mostly cloudy 800 ft
Overcast 1100 ft
2019/12/16 09:53 KDFW 160953Z 34015KT 10SM BKN008 OVC011 05/02 A2989 RMK AO2 SLP117 T00500022 $
 
KMIA - Miami, Florida USA
Distance from station: SE 1273mi, 2049km
Updated: 12/16/2019 3:53am CST
Few Clouds
Few Clouds
 Wind from E
Wind: E 7 mph , 11 km/h
Temperature: 72°F , 22°C
Dew Point: 64°F , 18°C
Humidity: 78%
Barometer: 30.11 inHg , 1019.6 hPa
Clouds: Few Clouds
Visibility: 10 miles , 16 km
Cloud details: Few Clouds 3300 ft
2019/12/16 09:53 KMIA 160953Z 08006KT 10SM FEW033 22/18 A3011 RMK AO2 SLP196 T02220183
KSAN - San Diego, California USA
Distance from station: WSW 1301mi, 2094km
Updated: 12/16/2019 3:51am CST
Clear
Clear
 Wind from calm
Wind: Calm
Temperature: 54°F , 12°C
Dew Point: 39°F , 4°C
Humidity: 58%
Barometer: 30.15 inHg , 1021 hPa
Clouds: Clear
Visibility: 10 miles , 16 km
2019/12/16 09:51 KSAN 160951Z 00000KT 10SM CLR 12/04 A3015 RMK AO2 SLP209 T01170044
 
KPQI - Presque Isle, Maine USA
Distance from station: NNE 1462mi, 2353km
Updated: 12/16/2019 3:56am CST
Clear
Clear
 Wind from W
Wind: W 20 mph , 31 km/h, Gust: 29 mph , 46 km/h
Temperature: 10°F , -12°C
Wind Chill: -9°F , -23°C
Dew Point: -0°F , -18°C
Humidity: 61%
Barometer: 29.80 inHg , 1009.1 hPa
Clouds: Clear
Visibility: 10 miles , 16 km
2019/12/16 09:56 KPQI 160956Z AUTO 28017G25KT 10SM CLR M12/M18 A2980 RMK AO2 PK WND 28030/0913 SLP127 T11221183
KSEA - Seattle, Washinton USA
Distance from station: WNW 1469mi, 2364km
Updated: 12/16/2019 3:53am CST
Overcast
Overcast
 Wind from ESE
Wind: ESE 8 mph , 13 km/h
Temperature: 39°F , 4°C
Wind Chill: 33°F , 1°C
Dew Point: 34°F , 1°C
Humidity: 81%
Barometer: 30.32 inHg , 1026.8 hPa
Clouds: Overcast
Visibility: 10 miles , 16 km
Cloud details: Overcast 4500 ft
2019/12/16 09:53 KSEA 160953Z 11007KT 10SM OVC045 04/01 A3032 RMK AO2 SLP275 T00390006 $
 
PANC - Anchorage Intl, Alaska USA
Distance from station: NW 2742mi, 4413km
Updated: 12/16/2019 3:53am CST
Mostly cloudy
Mostly cloudy
 Wind from NNW
Wind: NNW 3 mph , 6 km/h
Temperature: 34°F , 1°C
Dew Point: 18°F , -8°C
Humidity: 51%
Barometer: 29.47 inHg , 998 hPa
Clouds: Mostly cloudy
Visibility: 10 miles , 16 km
Cloud details: Few Clouds 7500 ft
Partly cloudy 14000 ft
Mostly cloudy 16000 ft
2019/12/16 09:53 PANC 160953Z 34003KT 10SM FEW075 SCT140 BKN160 01/M08 A2947 RMK AO2 SLP981 T00061078
PHNL - Honolulu, HI USA
Distance from station: WSW 3856mi, 6206km
Updated: 12/16/2019 3:53am CST
Partly cloudy
Partly cloudy
 Wind from NE
Wind: NE 9 mph , 15 km/h
Temperature: 77°F , 25°C
Dew Point: 64°F , 18°C
Humidity: 65%
Barometer: 30.01 inHg , 1016.3 hPa
Clouds: Partly cloudy
Visibility: 10 miles , 16 km
Cloud details: Few Clouds 2200 ft
Few Clouds 3500 ft
Partly cloudy 5000 ft
2019/12/16 09:53 PHNL 160953Z 05008KT 10SM FEW022 FEW035 SCT050 25/18 A3001 RMK AO2 SLP160 T02500183 402890228 $